createdAt,value
2022-11-21T00:01:24.547Z,13.50
2022-11-21T00:03:52.231Z,13.50
2022-11-21T00:06:20.154Z,13.50
2022-11-21T00:08:47.815Z,13.50
2022-11-21T00:11:16.097Z,13.50
2022-11-21T00:13:43.773Z,13.50
2022-11-21T00:16:15.428Z,13.50
2022-11-21T00:18:44.100Z,13.50
2022-11-21T00:21:14.043Z,13.50
2022-11-21T00:23:41.927Z,13.50
2022-11-21T00:26:11.183Z,13.50
2022-11-21T00:28:38.977Z,13.50
2022-11-21T00:31:07.664Z,13.50
2022-11-21T00:33:36.781Z,13.50
2022-11-21T00:36:10.468Z,13.50
2022-11-21T00:38:38.168Z,13.50
2022-11-21T00:41:06.404Z,13.50
2022-11-21T00:43:34.009Z,13.40
2022-11-21T00:46:02.988Z,13.40
2022-11-21T00:48:31.844Z,13.40
2022-11-21T00:51:02.745Z,13.40
2022-11-21T00:53:30.642Z,13.40
2022-11-21T00:55:58.185Z,13.40
2022-11-21T00:58:26.395Z,13.40
2022-11-21T01:01:01.972Z,13.40
2022-11-21T01:03:29.348Z,13.50
2022-11-21T01:06:04.613Z,13.40
2022-11-21T01:08:32.365Z,13.40
2022-11-21T01:11:03.977Z,13.40
2022-11-21T01:13:31.588Z,13.40
2022-11-21T01:16:06.971Z,13.40
2022-11-21T01:18:35.107Z,13.40
2022-11-21T01:21:32.932Z,13.40
2022-11-21T01:24:02.754Z,13.40
2022-11-21T01:26:31.544Z,13.40
2022-11-21T01:28:59.712Z,13.30
2022-11-21T01:31:29.316Z,13.30
2022-11-21T01:33:59.856Z,13.30
2022-11-21T01:36:30.222Z,13.30
2022-11-21T01:39:00.095Z,13.30
2022-11-21T01:41:39.414Z,13.30
2022-11-21T01:44:28.302Z,13.20
2022-11-21T01:46:55.865Z,13.20
2022-11-21T01:49:32.596Z,13.20
2022-11-21T01:52:04.701Z,13.20
2022-11-21T01:54:41.442Z,13.20
2022-11-21T01:57:17.341Z,13.10
2022-11-21T02:00:01.121Z,13.10
2022-11-21T02:02:32.944Z,13.10
2022-11-21T02:05:01.116Z,13.10
2022-11-21T02:07:33.822Z,13.10
2022-11-21T02:10:03.052Z,13.10
2022-11-21T02:12:39.521Z,13.10
2022-11-21T02:15:07.629Z,13.10
2022-11-21T02:17:34.961Z,13.10
2022-11-21T02:20:05.291Z,13.10
2022-11-21T02:22:40.041Z,13.00
2022-11-21T02:25:17.760Z,13.00
2022-11-21T02:27:46.732Z,13.00
2022-11-21T02:30:15.131Z,13.00
2022-11-21T02:32:47.580Z,13.00
2022-11-21T02:35:17.014Z,13.00
2022-11-21T02:37:51.343Z,13.00
2022-11-21T02:40:25.560Z,12.90
2022-11-21T02:43:06.481Z,12.90
2022-11-21T02:45:39.046Z,12.90
2022-11-21T02:48:06.633Z,12.90
2022-11-21T02:50:36.147Z,12.90
2022-11-21T02:53:05.542Z,12.90
2022-11-21T02:55:32.890Z,12.90
2022-11-21T02:58:04.834Z,12.90
2022-11-21T03:00:33.988Z,12.90
2022-11-21T03:03:01.477Z,12.90
2022-11-21T03:05:28.982Z,12.90
2022-11-21T03:07:56.441Z,12.80
2022-11-21T03:10:23.794Z,12.80
2022-11-21T03:12:51.168Z,12.80
2022-11-21T03:15:18.651Z,12.80
2022-11-21T03:17:48.776Z,12.80
2022-11-21T03:20:16.100Z,12.80
2022-11-21T03:22:43.477Z,12.70
2022-11-21T03:25:10.820Z,12.80
2022-11-21T03:27:38.181Z,12.70
2022-11-21T03:30:06.201Z,12.70
2022-11-21T03:32:33.440Z,12.70
2022-11-21T03:35:00.760Z,12.70
2022-11-21T03:37:28.025Z,12.70
2022-11-21T03:39:55.361Z,12.60
2022-11-21T03:42:22.817Z,12.70
2022-11-21T03:44:50.167Z,12.70
2022-11-21T03:47:17.468Z,12.70
2022-11-21T03:49:44.953Z,12.60
2022-11-21T03:52:12.378Z,12.60
2022-11-21T03:54:39.660Z,12.60
2022-11-21T03:57:06.924Z,12.60
2022-11-21T03:59:34.275Z,12.60
2022-11-21T04:02:01.755Z,12.60
2022-11-21T04:04:29.395Z,12.60
2022-11-21T04:06:57.069Z,12.60
2022-11-21T04:09:24.386Z,12.60
2022-11-21T04:11:51.720Z,12.60
2022-11-21T04:14:19.095Z,12.50
2022-11-21T04:16:46.405Z,12.50
2022-11-21T04:19:13.774Z,12.50
2022-11-21T04:21:41.116Z,12.50
2022-11-21T04:24:08.750Z,12.50
2022-11-21T04:26:36.040Z,12.50
2022-11-21T04:29:03.393Z,12.50
2022-11-21T04:31:30.785Z,12.50
2022-11-21T04:33:58.608Z,12.50
2022-11-21T04:36:26.095Z,12.40
2022-11-21T04:38:53.544Z,12.40
2022-11-21T04:41:20.932Z,12.40
2022-11-21T04:43:48.338Z,12.40
2022-11-21T04:46:15.753Z,12.40
2022-11-21T04:48:43.053Z,12.40
2022-11-21T04:51:10.505Z,12.40
2022-11-21T04:53:42.723Z,12.40
2022-11-21T04:56:10.550Z,12.40
2022-11-21T04:58:37.903Z,12.40
2022-11-21T05:01:09.367Z,12.30
2022-11-21T05:03:37.200Z,12.30
2022-11-21T05:06:04.588Z,12.30
2022-11-21T05:08:31.985Z,12.30
2022-11-21T05:11:18.146Z,12.30
2022-11-21T05:13:45.501Z,12.30
2022-11-21T05:16:12.817Z,12.30
2022-11-21T05:18:40.117Z,12.30
2022-11-21T05:21:07.424Z,12.30
2022-11-21T05:23:34.725Z,12.30
2022-11-21T05:26:02.124Z,12.30
2022-11-21T05:28:29.500Z,12.20
2022-11-21T05:30:56.814Z,12.20
2022-11-21T05:33:24.169Z,12.20
2022-11-21T05:35:51.580Z,12.20
2022-11-21T05:38:18.961Z,12.20
2022-11-21T05:40:46.467Z,12.20
2022-11-21T05:43:32.439Z,12.20
2022-11-21T05:45:59.744Z,12.20
2022-11-21T05:48:27.258Z,12.20
2022-11-21T05:50:54.796Z,12.20
2022-11-21T05:53:22.244Z,12.20
2022-11-21T05:55:49.736Z,12.20
2022-11-21T05:58:17.088Z,12.20
2022-11-21T06:00:44.429Z,12.20
2022-11-21T06:03:27.432Z,12.20
2022-11-21T06:06:06.220Z,12.10
2022-11-21T06:08:51.415Z,12.10
2022-11-21T06:11:18.806Z,12.10
2022-11-21T06:13:46.319Z,12.10
2022-11-21T06:16:15.752Z,12.10
2022-11-21T06:18:45.486Z,12.20
2022-11-21T06:21:14.425Z,12.10
2022-11-21T06:23:42.219Z,12.10
2022-11-21T06:26:13.990Z,12.20
2022-11-21T06:28:41.812Z,12.20
2022-11-21T06:31:11.876Z,12.20
2022-11-21T06:33:40.052Z,12.20
2022-11-21T06:36:10.451Z,12.20
2022-11-21T06:38:38.186Z,12.20
2022-11-21T06:41:16.066Z,12.30
2022-11-21T06:43:43.649Z,12.30
2022-11-21T06:46:11.573Z,12.30
2022-11-21T06:48:39.594Z,12.30
2022-11-21T06:51:17.896Z,12.30
2022-11-21T06:53:46.065Z,12.40
2022-11-21T06:56:14.594Z,12.40
2022-11-21T06:58:42.008Z,12.50
2022-11-21T07:01:10.538Z,12.80
2022-11-21T07:03:37.987Z,13.00
2022-11-21T07:06:06.183Z,13.10
2022-11-21T07:08:38.020Z,13.30
2022-11-21T07:11:24.526Z,13.40
2022-11-21T07:13:52.548Z,13.60
2022-11-21T07:16:19.875Z,13.80
2022-11-21T07:18:47.165Z,14.10
2022-11-21T07:21:14.685Z,14.40
2022-11-21T07:23:42.117Z,14.70
2022-11-21T07:26:11.178Z,15.00
2022-11-21T07:28:38.699Z,15.10
2022-11-21T07:31:12.992Z,15.10
2022-11-21T07:33:43.343Z,15.10
2022-11-21T07:36:12.243Z,15.00
2022-11-21T07:38:41.449Z,15.00
2022-11-21T07:41:10.047Z,15.00
2022-11-21T07:43:37.420Z,14.40
2022-11-21T07:46:04.825Z,14.20
2022-11-21T07:48:32.191Z,13.90
2022-11-21T07:50:59.579Z,13.80
2022-11-21T07:53:26.926Z,13.80
2022-11-21T07:55:54.371Z,13.60
2022-11-21T07:58:21.725Z,14.50
2022-11-21T08:00:49.218Z,15.10
2022-11-21T08:03:16.610Z,14.90
2022-11-21T08:05:44.740Z,14.30
2022-11-21T08:08:13.605Z,13.90
2022-11-21T08:10:43.188Z,13.60
2022-11-21T08:13:11.502Z,13.40
2022-11-21T08:15:39.454Z,13.40
2022-11-21T08:18:19.097Z,13.30
2022-11-21T08:20:46.954Z,13.40
2022-11-21T08:23:14.677Z,14.20
2022-11-21T08:25:42.991Z,14.20
2022-11-21T08:28:11.797Z,14.40
2022-11-21T08:30:45.918Z,14.90
2022-11-21T08:33:32.639Z,15.20
2022-11-21T08:36:04.476Z,15.60
2022-11-21T08:38:31.932Z,15.40
2022-11-21T08:41:18.101Z,15.00
2022-11-21T08:43:45.767Z,14.80
2022-11-21T08:46:13.224Z,15.30
2022-11-21T08:48:40.591Z,16.50
2022-11-21T08:51:08.038Z,17.70
2022-11-21T08:53:35.916Z,19.30
2022-11-21T08:56:04.619Z,20.30
2022-11-21T08:58:32.104Z,20.60
2022-11-21T09:01:00.432Z,20.90
2022-11-21T09:03:31.124Z,21.00
2022-11-21T09:06:00.001Z,21.30
2022-11-21T09:08:28.909Z,21.60
2022-11-21T09:10:56.682Z,21.80
2022-11-21T09:13:24.080Z,21.90
2022-11-21T09:16:09.821Z,21.80
2022-11-21T09:18:37.174Z,21.80
2022-11-21T09:21:04.502Z,22.10
2022-11-21T09:23:31.890Z,21.90
2022-11-21T09:26:03.073Z,22.20
2022-11-21T09:28:30.485Z,22.50
2022-11-21T09:30:59.058Z,22.60
2022-11-21T09:33:26.615Z,22.70
2022-11-21T09:35:53.928Z,22.80
2022-11-21T09:38:24.261Z,22.60
2022-11-21T09:40:52.042Z,22.20
2022-11-21T09:43:40.970Z,21.80
2022-11-21T09:46:16.407Z,21.30
2022-11-21T09:48:53.273Z,21.20
2022-11-21T09:51:22.598Z,21.30
2022-11-21T09:54:11.797Z,21.40
2022-11-21T09:56:42.457Z,21.50
2022-11-21T09:59:37.139Z,21.70
2022-11-21T10:02:18.763Z,21.80
2022-11-21T10:04:47.741Z,22.00
2022-11-21T10:07:15.112Z,22.10
2022-11-21T10:10:19.720Z,22.30
2022-11-21T10:12:56.071Z,22.50
2022-11-21T10:15:35.497Z,22.60
2022-11-21T10:18:20.930Z,22.80
2022-11-21T10:21:16.165Z,22.90
2022-11-21T10:24:10.640Z,22.90
2022-11-21T10:26:46.673Z,22.80
2022-11-21T10:29:29.253Z,23.00
2022-11-21T10:32:01.782Z,23.10
2022-11-21T10:34:37.801Z,23.10
2022-11-21T10:37:33.759Z,23.20
2022-11-21T10:40:17.682Z,23.30
2022-11-21T10:43:21.976Z,23.40
2022-11-21T10:45:50.000Z,23.50
2022-11-21T10:48:17.346Z,23.50
2022-11-21T10:51:04.669Z,23.60
2022-11-21T10:53:50.694Z,23.70
2022-11-21T10:56:20.645Z,23.60
2022-11-21T10:58:52.270Z,23.60
2022-11-21T11:01:22.561Z,23.60
2022-11-21T11:04:41.513Z,23.70
2022-11-21T11:07:26.413Z,23.50
2022-11-21T11:10:15.873Z,23.50
2022-11-21T11:13:04.988Z,23.40
2022-11-21T11:15:40.042Z,23.20
2022-11-21T11:18:14.834Z,22.80
2022-11-21T11:20:45.112Z,22.30
2022-11-21T11:23:30.712Z,21.90
2022-11-21T11:25:59.725Z,22.00
2022-11-21T11:28:34.191Z,22.10
2022-11-21T11:31:01.701Z,21.70
2022-11-21T11:33:33.459Z,21.20
2022-11-21T11:36:23.213Z,21.10
2022-11-21T11:38:57.664Z,21.10
2022-11-21T11:42:16.431Z,21.30
2022-11-21T11:45:22.143Z,21.60
2022-11-21T11:47:55.778Z,21.90
2022-11-21T11:50:48.823Z,22.10
2022-11-21T11:53:37.137Z,22.30
2022-11-21T11:56:26.176Z,22.50
2022-11-21T11:59:24.830Z,22.70
2022-11-21T12:02:12.165Z,22.80
2022-11-21T12:04:51.139Z,22.90
2022-11-21T12:10:18.308Z,23.20
2022-11-21T12:13:04.422Z,23.30
2022-11-21T12:15:50.676Z,23.40
2022-11-21T12:18:21.196Z,23.40
2022-11-21T12:21:14.092Z,23.40
2022-11-21T12:23:51.857Z,23.40
2022-11-21T12:26:56.591Z,23.20
2022-11-21T12:29:40.385Z,22.90
2022-11-21T12:32:33.834Z,22.80
2022-11-21T12:35:19.873Z,22.70
2022-11-21T12:38:05.047Z,22.30
2022-11-21T12:40:47.425Z,22.40
2022-11-21T12:43:17.565Z,22.50
2022-11-21T12:45:52.304Z,22.40
2022-11-21T12:48:41.133Z,22.10
2022-11-21T12:51:35.228Z,21.90
2022-11-21T12:54:21.212Z,21.70
2022-11-21T12:57:10.181Z,21.70
2022-11-21T13:00:11.988Z,21.50
2022-11-21T13:03:00.581Z,21.30
2022-11-21T13:05:43.089Z,21.30
2022-11-21T13:08:24.597Z,21.00
2022-11-21T13:11:16.634Z,21.00
2022-11-21T13:13:47.198Z,20.70
2022-11-21T13:16:39.817Z,20.70
2022-11-21T13:19:31.126Z,20.40
2022-11-21T13:21:58.674Z,20.50
2022-11-21T13:24:44.688Z,20.50
2022-11-21T13:27:39.592Z,20.50
2022-11-21T13:30:07.090Z,20.50
2022-11-21T13:32:51.445Z,20.70
2022-11-21T13:35:21.750Z,20.80
2022-11-21T13:37:52.550Z,20.80
2022-11-21T13:40:31.684Z,20.70
2022-11-21T13:43:32.718Z,20.50
2022-11-21T13:46:01.390Z,20.30
2022-11-21T13:48:28.772Z,20.20
2022-11-21T13:51:15.132Z,19.90
2022-11-21T13:53:58.249Z,19.40
2022-11-21T13:56:48.968Z,19.20
2022-11-21T13:59:55.500Z,19.10
2022-11-21T14:02:49.614Z,19.10
2022-11-21T14:05:38.386Z,18.90
2022-11-21T14:08:20.863Z,18.70
2022-11-21T14:10:50.790Z,18.80
2022-11-21T14:13:38.603Z,18.80
2022-11-21T14:16:41.899Z,18.80
2022-11-21T14:19:19.582Z,18.50
2022-11-21T14:21:49.035Z,18.60
2022-11-21T14:24:19.399Z,18.50
2022-11-21T14:26:52.690Z,18.50
2022-11-21T14:29:26.929Z,18.30
2022-11-21T14:31:55.718Z,17.90
2022-11-21T14:34:30.244Z,17.90
2022-11-21T14:37:00.497Z,17.60
2022-11-21T14:39:41.967Z,17.70
2022-11-21T14:42:16.399Z,17.80
2022-11-21T14:44:44.119Z,17.80
2022-11-21T14:47:26.411Z,17.70
2022-11-21T14:49:57.033Z,17.60
2022-11-21T14:52:30.607Z,17.60
2022-11-21T14:55:28.714Z,17.60
2022-11-21T14:57:48.016Z,17.40
2022-11-21T15:00:51.190Z,17.30
2022-11-21T15:03:19.367Z,17.80
2022-11-21T15:06:01.836Z,17.40
2022-11-21T15:11:35.096Z,17.00
2022-11-21T15:14:15.926Z,16.80
2022-11-21T15:16:47.885Z,17.00
2022-11-21T15:19:26.277Z,16.90
2022-11-21T15:21:57.296Z,16.80
2022-11-21T15:24:43.094Z,16.80
2022-11-21T15:27:28.764Z,16.80
2022-11-21T15:30:24.416Z,16.70
2022-11-21T15:33:03.688Z,16.60
2022-11-21T15:35:52.205Z,16.50
2022-11-21T15:38:49.416Z,16.50
2022-11-21T15:41:16.779Z,16.50
2022-11-21T15:43:48.190Z,16.50
2022-11-21T15:46:18.541Z,16.50
2022-11-21T15:48:53.373Z,16.40
2022-11-21T15:54:25.533Z,16.40
2022-11-21T15:56:52.877Z,16.30
2022-11-21T15:57:12.902Z,16.40
2022-11-21T15:59:21.417Z,16.30
2022-11-21T16:01:48.889Z,16.30
2022-11-21T16:04:19.713Z,16.20
2022-11-21T16:06:49.998Z,16.20
2022-11-21T16:09:17.382Z,16.10
2022-11-21T16:11:44.826Z,16.10
2022-11-21T16:14:14.425Z,16.10
2022-11-21T16:16:43.854Z,16.10
2022-11-21T16:19:12.581Z,16.10
2022-11-21T16:21:40.776Z,16.10
2022-11-21T16:24:08.377Z,16.00
2022-11-21T16:26:35.766Z,15.90
2022-11-21T16:29:06.430Z,15.80
2022-11-21T16:31:33.997Z,15.80
2022-11-21T16:34:01.515Z,15.80
2022-11-21T16:36:30.353Z,15.80
2022-11-21T16:39:05.134Z,15.80
2022-11-21T16:41:35.431Z,15.70
2022-11-21T16:44:02.908Z,15.70
2022-11-21T16:46:30.366Z,15.70
2022-11-21T16:49:00.596Z,15.60
2022-11-21T16:51:28.578Z,15.60
2022-11-21T16:53:57.602Z,15.50
2022-11-21T16:56:25.423Z,15.50
2022-11-21T16:58:52.828Z,15.50
2022-11-21T17:01:25.424Z,15.50
2022-11-21T17:03:53.689Z,15.50
2022-11-21T17:06:23.894Z,15.40
2022-11-21T17:08:51.317Z,15.30
2022-11-21T17:11:19.868Z,15.40
2022-11-21T17:13:48.616Z,15.40
2022-11-21T17:16:18.277Z,15.20
2022-11-21T17:18:45.854Z,15.10
2022-11-21T17:21:16.095Z,15.00
2022-11-21T17:23:45.329Z,14.90
2022-11-21T17:26:14.930Z,15.00
2022-11-21T17:28:45.977Z,15.10
